sensor_id;sensor_type;location;lat;lon;timestamp;P1;durP1;ratioP1;P2;durP2;ratioP2
26253;SDS011;53339;51.378;0.094;2023-04-06T00:02:15;21.75;;;9.35;;
26253;SDS011;53339;51.378;0.094;2023-04-06T00:04:44;20.20;;;8.98;;
26253;SDS011;53339;51.378;0.094;2023-04-06T00:07:13;22.27;;;8.65;;
26253;SDS011;53339;51.378;0.094;2023-04-06T00:09:41;20.55;;;11.10;;
26253;SDS011;53339;51.378;0.094;2023-04-06T00:12:10;23.13;;;8.93;;
26253;SDS011;53339;51.378;0.094;2023-04-06T00:14:42;22.33;;;8.95;;
26253;SDS011;53339;51.378;0.094;2023-04-06T00:17:14;23.55;;;8.85;;
26253;SDS011;53339;51.378;0.094;2023-04-06T00:19:43;19.95;;;8.20;;
26253;SDS011;53339;51.378;0.094;2023-04-06T00:22:11;20.00;;;7.80;;
26253;SDS011;53339;51.378;0.094;2023-04-06T00:24:39;20.20;;;11.52;;
26253;SDS011;53339;51.378;0.094;2023-04-06T00:27:07;21.90;;;8.95;;
26253;SDS011;53339;51.378;0.094;2023-04-06T00:29:34;18.70;;;7.32;;
26253;SDS011;53339;51.378;0.094;2023-04-06T00:34:34;18.20;;;9.82;;
26253;SDS011;53339;51.378;0.094;2023-04-06T00:37:01;15.88;;;7.93;;
26253;SDS011;53339;51.378;0.094;2023-04-06T00:39:29;17.42;;;9.88;;
26253;SDS011;53339;51.378;0.094;2023-04-06T00:41:58;14.45;;;6.30;;
26253;SDS011;53339;51.378;0.094;2023-04-06T00:44:27;15.38;;;7.28;;
26253;SDS011;53339;51.378;0.094;2023-04-06T00:46:55;13.93;;;6.70;;
26253;SDS011;53339;51.378;0.094;2023-04-06T00:51:53;12.75;;;5.18;;
26253;SDS011;53339;51.378;0.094;2023-04-06T00:54:21;11.25;;;4.72;;
26253;SDS011;53339;51.378;0.094;2023-04-06T00:56:49;10.02;;;6.55;;
26253;SDS011;53339;51.378;0.094;2023-04-06T00:59:23;10.43;;;5.50;;
26253;SDS011;53339;51.378;0.094;2023-04-06T01:01:54;9.68;;;6.15;;
26253;SDS011;53339;51.378;0.094;2023-04-06T01:04:32;9.63;;;4.70;;
26253;SDS011;53339;51.378;0.094;2023-04-06T01:07:10;8.85;;;4.40;;
26253;SDS011;53339;51.378;0.094;2023-04-06T01:09:48;9.75;;;4.45;;
26253;SDS011;53339;51.378;0.094;2023-04-06T01:12:21;8.55;;;4.88;;
26253;SDS011;53339;51.378;0.094;2023-04-06T01:14:49;8.25;;;3.40;;
26253;SDS011;53339;51.378;0.094;2023-04-06T01:17:18;8.82;;;3.75;;
26253;SDS011;53339;51.378;0.094;2023-04-06T01:19:46;8.57;;;4.22;;
26253;SDS011;53339;51.378;0.094;2023-04-06T01:22:28;8.20;;;3.88;;
26253;SDS011;53339;51.378;0.094;2023-04-06T01:25:01;7.63;;;3.70;;
26253;SDS011;53339;51.378;0.094;2023-04-06T01:27:45;6.82;;;3.60;;
26253;SDS011;53339;51.378;0.094;2023-04-06T01:30:24;6.95;;;5.78;;
26253;SDS011;53339;51.378;0.094;2023-04-06T01:33:07;8.00;;;3.28;;
26253;SDS011;53339;51.378;0.094;2023-04-06T01:35:44;10.60;;;9.23;;
26253;SDS011;53339;51.378;0.094;2023-04-06T01:38:20;8.35;;;6.43;;
26253;SDS011;53339;51.378;0.094;2023-04-06T01:40:49;8.57;;;6.35;;
26253;SDS011;53339;51.378;0.094;2023-04-06T01:43:20;6.55;;;3.13;;
26253;SDS011;53339;51.378;0.094;2023-04-06T01:46:15;7.40;;;6.40;;
26253;SDS011;53339;51.378;0.094;2023-04-06T01:48:45;8.27;;;5.63;;
26253;SDS011;53339;51.378;0.094;2023-04-06T01:51:21;6.10;;;2.63;;
26253;SDS011;53339;51.378;0.094;2023-04-06T01:53:56;6.00;;;3.22;;
26253;SDS011;53339;51.378;0.094;2023-04-06T01:56:35;6.75;;;3.28;;
26253;SDS011;53339;51.378;0.094;2023-04-06T01:59:21;6.80;;;3.30;;
26253;SDS011;53339;51.378;0.094;2023-04-06T02:01:53;7.45;;;6.57;;
26253;SDS011;53339;51.378;0.094;2023-04-06T02:04:24;7.00;;;3.53;;
26253;SDS011;53339;51.378;0.094;2023-04-06T02:07:06;6.13;;;3.53;;
26253;SDS011;53339;51.378;0.094;2023-04-06T02:09:34;5.70;;;2.60;;
26253;SDS011;53339;51.378;0.094;2023-04-06T02:12:07;6.68;;;3.30;;
26253;SDS011;53339;51.378;0.094;2023-04-06T02:14:36;6.70;;;5.22;;
26253;SDS011;53339;51.378;0.094;2023-04-06T02:17:06;6.35;;;3.03;;
26253;SDS011;53339;51.378;0.094;2023-04-06T02:19:34;6.63;;;4.95;;
26253;SDS011;53339;51.378;0.094;2023-04-06T02:22:02;5.10;;;2.50;;
26253;SDS011;53339;51.378;0.094;2023-04-06T02:24:35;5.07;;;2.95;;
26253;SDS011;53339;51.378;0.094;2023-04-06T02:27:03;7.25;;;5.50;;
26253;SDS011;53339;51.378;0.094;2023-04-06T02:29:32;6.50;;;5.68;;
26253;SDS011;53339;51.378;0.094;2023-04-06T02:32:04;8.07;;;6.35;;
26253;SDS011;53339;51.378;0.094;2023-04-06T02:34:32;6.18;;;4.30;;
26253;SDS011;53339;51.378;0.094;2023-04-06T02:37:00;5.63;;;2.97;;
26253;SDS011;53339;51.378;0.094;2023-04-06T02:39:29;6.45;;;3.22;;
26253;SDS011;53339;51.378;0.094;2023-04-06T02:42:03;6.45;;;5.80;;
26253;SDS011;53339;51.378;0.094;2023-04-06T02:44:31;6.18;;;3.00;;
26253;SDS011;53339;51.378;0.094;2023-04-06T02:47:00;6.97;;;3.70;;
26253;SDS011;53339;51.378;0.094;2023-04-06T02:49:28;7.43;;;3.70;;
26253;SDS011;53339;51.378;0.094;2023-04-06T02:52:01;7.55;;;6.72;;
26253;SDS011;53339;51.378;0.094;2023-04-06T02:54:34;9.80;;;6.75;;
26253;SDS011;53339;51.378;0.094;2023-04-06T02:57:03;7.90;;;6.30;;
26253;SDS011;53339;51.378;0.094;2023-04-06T02:59:39;8.70;;;5.13;;
26253;SDS011;53339;51.378;0.094;2023-04-06T03:02:17;8.68;;;3.78;;
26253;SDS011;53339;51.378;0.094;2023-04-06T03:04:45;7.63;;;2.97;;
26253;SDS011;53339;51.378;0.094;2023-04-06T03:07:31;6.55;;;3.05;;
26253;SDS011;53339;51.378;0.094;2023-04-06T03:09:59;6.90;;;5.15;;
26253;SDS011;53339;51.378;0.094;2023-04-06T03:12:31;7.22;;;2.95;;
26253;SDS011;53339;51.378;0.094;2023-04-06T03:15:16;6.10;;;5.50;;
26253;SDS011;53339;51.378;0.094;2023-04-06T03:17:49;5.22;;;2.35;;
26253;SDS011;53339;51.378;0.094;2023-04-06T03:20:33;2.78;;;1.73;;
26253;SDS011;53339;51.378;0.094;2023-04-06T03:23:01;5.07;;;4.57;;
26253;SDS011;53339;51.378;0.094;2023-04-06T03:25:35;3.45;;;1.73;;
26253;SDS011;53339;51.378;0.094;2023-04-06T03:28:06;2.40;;;2.05;;
26253;SDS011;53339;51.378;0.094;2023-04-06T03:30:41;3.67;;;3.38;;
26253;SDS011;53339;51.378;0.094;2023-04-06T03:33:16;2.13;;;1.42;;
26253;SDS011;53339;51.378;0.094;2023-04-06T03:35:53;2.35;;;1.70;;
26253;SDS011;53339;51.378;0.094;2023-04-06T03:38:23;2.35;;;1.35;;
26253;SDS011;53339;51.378;0.094;2023-04-06T03:40:51;3.63;;;1.48;;
26253;SDS011;53339;51.378;0.094;2023-04-06T03:43:24;2.88;;;1.20;;
26253;SDS011;53339;51.378;0.094;2023-04-06T03:45:56;2.03;;;1.60;;
26253;SDS011;53339;51.378;0.094;2023-04-06T03:48:27;3.53;;;2.65;;
26253;SDS011;53339;51.378;0.094;2023-04-06T03:51:03;4.18;;;1.85;;
26253;SDS011;53339;51.378;0.094;2023-04-06T03:53:32;4.57;;;2.38;;
26253;SDS011;53339;51.378;0.094;2023-04-06T03:56:04;5.38;;;2.70;;
26253;SDS011;53339;51.378;0.094;2023-04-06T03:58:33;6.05;;;2.28;;
26253;SDS011;53339;51.378;0.094;2023-04-06T04:01:08;4.45;;;2.58;;
26253;SDS011;53339;51.378;0.094;2023-04-06T04:03:39;7.43;;;5.68;;
26253;SDS011;53339;51.378;0.094;2023-04-06T04:06:07;6.13;;;3.60;;
26253;SDS011;53339;51.378;0.094;2023-04-06T04:08:36;6.63;;;3.63;;
26253;SDS011;53339;51.378;0.094;2023-04-06T04:11:04;8.75;;;4.10;;
26253;SDS011;53339;51.378;0.094;2023-04-06T04:13:33;9.13;;;6.53;;
26253;SDS011;53339;51.378;0.094;2023-04-06T04:16:15;9.73;;;4.63;;
26253;SDS011;53339;51.378;0.094;2023-04-06T04:18:47;11.82;;;5.47;;
26253;SDS011;53339;51.378;0.094;2023-04-06T04:21:18;10.52;;;7.22;;
26253;SDS011;53339;51.378;0.094;2023-04-06T04:23:46;12.57;;;7.22;;
26253;SDS011;53339;51.378;0.094;2023-04-06T04:26:15;10.20;;;6.68;;
26253;SDS011;53339;51.378;0.094;2023-04-06T04:28:45;10.50;;;5.32;;
26253;SDS011;53339;51.378;0.094;2023-04-06T04:31:15;12.10;;;5.05;;
26253;SDS011;53339;51.378;0.094;2023-04-06T04:33:50;13.65;;;8.63;;
26253;SDS011;53339;51.378;0.094;2023-04-06T04:36:25;16.33;;;12.35;;
26253;SDS011;53339;51.378;0.094;2023-04-06T04:39:04;17.02;;;9.02;;
26253;SDS011;53339;51.378;0.094;2023-04-06T04:41:48;14.85;;;9.10;;
26253;SDS011;53339;51.378;0.094;2023-04-06T04:44:17;12.77;;;7.28;;
26253;SDS011;53339;51.378;0.094;2023-04-06T04:46:45;15.43;;;6.57;;
26253;SDS011;53339;51.378;0.094;2023-04-06T04:49:19;14.75;;;6.50;;
26253;SDS011;53339;51.378;0.094;2023-04-06T04:51:50;11.32;;;5.13;;
26253;SDS011;53339;51.378;0.094;2023-04-06T04:54:35;10.38;;;7.38;;
26253;SDS011;53339;51.378;0.094;2023-04-06T04:57:05;12.57;;;7.53;;
26253;SDS011;53339;51.378;0.094;2023-04-06T04:59:42;13.52;;;6.53;;
26253;SDS011;53339;51.378;0.094;2023-04-06T05:02:17;14.52;;;6.35;;
26253;SDS011;53339;51.378;0.094;2023-04-06T05:05:06;12.75;;;5.47;;
26253;SDS011;53339;51.378;0.094;2023-04-06T05:07:35;15.45;;;8.73;;
26253;SDS011;53339;51.378;0.094;2023-04-06T05:10:05;11.02;;;5.53;;
26253;SDS011;53339;51.378;0.094;2023-04-06T05:12:47;14.32;;;6.05;;
26253;SDS011;53339;51.378;0.094;2023-04-06T05:15:16;14.25;;;9.52;;
26253;SDS011;53339;51.378;0.094;2023-04-06T05:17:45;19.33;;;9.77;;
26253;SDS011;53339;51.378;0.094;2023-04-06T05:20:19;15.88;;;8.63;;
26253;SDS011;53339;51.378;0.094;2023-04-06T05:22:50;14.75;;;8.55;;
26253;SDS011;53339;51.378;0.094;2023-04-06T05:25:25;9.32;;;4.45;;
26253;SDS011;53339;51.378;0.094;2023-04-06T05:27:59;14.38;;;8.73;;
26253;SDS011;53339;51.378;0.094;2023-04-06T05:30:34;16.05;;;9.35;;
26253;SDS011;53339;51.378;0.094;2023-04-06T05:33:04;13.30;;;6.30;;
26253;SDS011;53339;51.378;0.094;2023-04-06T05:35:48;15.48;;;5.80;;
26253;SDS011;53339;51.378;0.094;2023-04-06T05:38:17;12.23;;;7.85;;
26253;SDS011;53339;51.378;0.094;2023-04-06T05:40:45;16.15;;;9.35;;
26253;SDS011;53339;51.378;0.094;2023-04-06T05:43:18;17.50;;;9.38;;
26253;SDS011;53339;51.378;0.094;2023-04-06T05:45:54;16.02;;;9.27;;
26253;SDS011;53339;51.378;0.094;2023-04-06T05:48:25;15.55;;;9.20;;
26253;SDS011;53339;51.378;0.094;2023-04-06T05:50:54;17.73;;;9.35;;
26253;SDS011;53339;51.378;0.094;2023-04-06T05:53:30;18.73;;;7.43;;
26253;SDS011;53339;51.378;0.094;2023-04-06T05:56:02;15.55;;;7.30;;
26253;SDS011;53339;51.378;0.094;2023-04-06T05:58:35;17.75;;;8.95;;
26253;SDS011;53339;51.378;0.094;2023-04-06T06:01:07;16.60;;;6.78;;
26253;SDS011;53339;51.378;0.094;2023-04-06T06:03:42;15.88;;;6.32;;
26253;SDS011;53339;51.378;0.094;2023-04-06T06:06:11;18.20;;;6.10;;
26253;SDS011;53339;51.378;0.094;2023-04-06T06:09:08;15.93;;;8.48;;
26253;SDS011;53339;51.378;0.094;2023-04-06T06:11:48;16.85;;;8.48;;
26253;SDS011;53339;51.378;0.094;2023-04-06T06:14:21;15.73;;;7.03;;
26253;SDS011;53339;51.378;0.094;2023-04-06T06:16:50;15.57;;;6.18;;
26253;SDS011;53339;51.378;0.094;2023-04-06T06:19:19;14.73;;;6.32;;
26253;SDS011;53339;51.378;0.094;2023-04-06T06:21:48;16.33;;;6.70;;
26253;SDS011;53339;51.378;0.094;2023-04-06T06:24:20;16.77;;;6.97;;
26253;SDS011;53339;51.378;0.094;2023-04-06T06:26:49;12.23;;;6.28;;
26253;SDS011;53339;51.378;0.094;2023-04-06T06:29:22;12.93;;;4.25;;
26253;SDS011;53339;51.378;0.094;2023-04-06T06:31:52;16.65;;;8.93;;
26253;SDS011;53339;51.378;0.094;2023-04-06T06:34:29;15.77;;;7.82;;
26253;SDS011;53339;51.378;0.094;2023-04-06T06:37:02;11.50;;;5.07;;
26253;SDS011;53339;51.378;0.094;2023-04-06T06:39:30;13.02;;;5.35;;
26253;SDS011;53339;51.378;0.094;2023-04-06T06:42:02;12.85;;;5.03;;
26253;SDS011;53339;51.378;0.094;2023-04-06T06:44:46;13.57;;;6.50;;
26253;SDS011;53339;51.378;0.094;2023-04-06T06:47:15;9.95;;;5.03;;
26253;SDS011;53339;51.378;0.094;2023-04-06T06:49:44;10.38;;;6.47;;
26253;SDS011;53339;51.378;0.094;2023-04-06T06:52:15;8.90;;;4.22;;
26253;SDS011;53339;51.378;0.094;2023-04-06T06:54:43;9.02;;;3.75;;
26253;SDS011;53339;51.378;0.094;2023-04-06T06:57:13;11.45;;;7.07;;
26253;SDS011;53339;51.378;0.094;2023-04-06T06:59:41;8.48;;;4.03;;
26253;SDS011;53339;51.378;0.094;2023-04-06T07:02:09;8.20;;;5.38;;
26253;SDS011;53339;51.378;0.094;2023-04-06T07:04:41;8.10;;;4.72;;
26253;SDS011;53339;51.378;0.094;2023-04-06T07:07:13;13.30;;;4.95;;
26253;SDS011;53339;51.378;0.094;2023-04-06T07:09:47;11.85;;;7.15;;
26253;SDS011;53339;51.378;0.094;2023-04-06T07:12:15;11.02;;;5.10;;
26253;SDS011;53339;51.378;0.094;2023-04-06T07:14:47;12.70;;;6.85;;
26253;SDS011;53339;51.378;0.094;2023-04-06T07:17:15;10.88;;;6.53;;
26253;SDS011;53339;51.378;0.094;2023-04-06T07:19:44;10.55;;;4.15;;
26253;SDS011;53339;51.378;0.094;2023-04-06T07:22:13;11.43;;;4.80;;
26253;SDS011;53339;51.378;0.094;2023-04-06T07:24:42;13.25;;;7.78;;
26253;SDS011;53339;51.378;0.094;2023-04-06T07:27:14;11.43;;;6.95;;
26253;SDS011;53339;51.378;0.094;2023-04-06T07:29:43;7.70;;;3.45;;
26253;SDS011;53339;51.378;0.094;2023-04-06T07:32:15;9.98;;;6.85;;
26253;SDS011;53339;51.378;0.094;2023-04-06T07:34:43;8.75;;;3.55;;
26253;SDS011;53339;51.378;0.094;2023-04-06T07:39:43;10.13;;;6.72;;
26253;SDS011;53339;51.378;0.094;2023-04-06T07:42:11;10.20;;;5.97;;
26253;SDS011;53339;51.378;0.094;2023-04-06T07:44:40;9.32;;;5.93;;
26253;SDS011;53339;51.378;0.094;2023-04-06T07:47:11;7.40;;;3.50;;
26253;SDS011;53339;51.378;0.094;2023-04-06T07:49:41;7.25;;;6.47;;
26253;SDS011;53339;51.378;0.094;2023-04-06T07:52:16;7.03;;;5.05;;
26253;SDS011;53339;51.378;0.094;2023-04-06T07:54:45;8.48;;;6.38;;
26253;SDS011;53339;51.378;0.094;2023-04-06T07:57:13;8.18;;;3.55;;
26253;SDS011;53339;51.378;0.094;2023-04-06T07:59:41;6.30;;;3.55;;
26253;SDS011;53339;51.378;0.094;2023-04-06T08:02:09;7.47;;;3.88;;
26253;SDS011;53339;51.378;0.094;2023-04-06T08:04:38;6.00;;;2.53;;
26253;SDS011;53339;51.378;0.094;2023-04-06T08:07:07;6.20;;;5.03;;
26253;SDS011;53339;51.378;0.094;2023-04-06T08:09:38;4.63;;;4.13;;
26253;SDS011;53339;51.378;0.094;2023-04-06T08:12:07;5.70;;;4.50;;
26253;SDS011;53339;51.378;0.094;2023-04-06T08:14:35;5.10;;;4.60;;
26253;SDS011;53339;51.378;0.094;2023-04-06T08:17:04;3.70;;;1.77;;
26253;SDS011;53339;51.378;0.094;2023-04-06T08:19:32;2.75;;;1.27;;
26253;SDS011;53339;51.378;0.094;2023-04-06T08:22:04;9.38;;;4.32;;
26253;SDS011;53339;51.378;0.094;2023-04-06T08:24:33;4.45;;;3.75;;
26253;SDS011;53339;51.378;0.094;2023-04-06T08:27:01;5.18;;;4.20;;
26253;SDS011;53339;51.378;0.094;2023-04-06T08:29:33;2.08;;;1.50;;
26253;SDS011;53339;51.378;0.094;2023-04-06T08:32:03;5.50;;;1.92;;
26253;SDS011;53339;51.378;0.094;2023-04-06T08:34:32;5.80;;;1.88;;
26253;SDS011;53339;51.378;0.094;2023-04-06T08:37:04;5.55;;;3.78;;
26253;SDS011;53339;51.378;0.094;2023-04-06T08:39:38;4.35;;;1.60;;
26253;SDS011;53339;51.378;0.094;2023-04-06T08:42:12;4.65;;;1.33;;
26253;SDS011;53339;51.378;0.094;2023-04-06T08:44:47;5.68;;;1.75;;
26253;SDS011;53339;51.378;0.094;2023-04-06T08:47:22;5.05;;;4.00;;
26253;SDS011;53339;51.378;0.094;2023-04-06T08:49:53;5.28;;;1.80;;
26253;SDS011;53339;51.378;0.094;2023-04-06T08:52:26;3.45;;;1.40;;
26253;SDS011;53339;51.378;0.094;2023-04-06T08:54:57;5.40;;;1.50;;
26253;SDS011;53339;51.378;0.094;2023-04-06T08:57:25;4.82;;;1.85;;
26253;SDS011;53339;51.378;0.094;2023-04-06T08:59:55;3.97;;;1.60;;
26253;SDS011;53339;51.378;0.094;2023-04-06T09:02:26;5.35;;;1.52;;
26253;SDS011;53339;51.378;0.094;2023-04-06T09:04:55;5.78;;;4.10;;
26253;SDS011;53339;51.378;0.094;2023-04-06T09:07:26;6.65;;;3.53;;
26253;SDS011;53339;51.378;0.094;2023-04-06T09:09:58;6.80;;;1.67;;
26253;SDS011;53339;51.378;0.094;2023-04-06T09:12:27;3.03;;;1.70;;
26253;SDS011;53339;51.378;0.094;2023-04-06T09:15:17;1.88;;;1.23;;
26253;SDS011;53339;51.378;0.094;2023-04-06T09:17:53;5.10;;;4.20;;
26253;SDS011;53339;51.378;0.094;2023-04-06T09:20:27;4.18;;;1.38;;
26253;SDS011;53339;51.378;0.094;2023-04-06T09:22:56;4.05;;;3.40;;
26253;SDS011;53339;51.378;0.094;2023-04-06T09:25:25;5.57;;;3.85;;
26253;SDS011;53339;51.378;0.094;2023-04-06T09:28:01;3.80;;;1.33;;
26253;SDS011;53339;51.378;0.094;2023-04-06T09:30:30;7.18;;;4.05;;
26253;SDS011;53339;51.378;0.094;2023-04-06T09:32:59;6.65;;;3.55;;
26253;SDS011;53339;51.378;0.094;2023-04-06T09:35:31;4.50;;;3.83;;
26253;SDS011;53339;51.378;0.094;2023-04-06T09:38:10;3.20;;;1.33;;
26253;SDS011;53339;51.378;0.094;2023-04-06T09:40:49;8.40;;;2.40;;
26253;SDS011;53339;51.378;0.094;2023-04-06T09:43:23;4.20;;;1.52;;
26253;SDS011;53339;51.378;0.094;2023-04-06T09:45:54;7.72;;;4.38;;
26253;SDS011;53339;51.378;0.094;2023-04-06T09:48:27;7.18;;;1.73;;
26253;SDS011;53339;51.378;0.094;2023-04-06T09:50:59;8.32;;;4.63;;
26253;SDS011;53339;51.378;0.094;2023-04-06T09:53:30;6.72;;;4.72;;
26253;SDS011;53339;51.378;0.094;2023-04-06T09:56:02;5.40;;;3.83;;
26253;SDS011;53339;51.378;0.094;2023-04-06T09:58:43;4.63;;;4.22;;
26253;SDS011;53339;51.378;0.094;2023-04-06T10:01:14;8.05;;;2.08;;
26253;SDS011;53339;51.378;0.094;2023-04-06T10:03:52;8.65;;;3.83;;
26253;SDS011;53339;51.378;0.094;2023-04-06T10:06:59;9.38;;;4.88;;
26253;SDS011;53339;51.378;0.094;2023-04-06T10:09:31;6.85;;;4.65;;
26253;SDS011;53339;51.378;0.094;2023-04-06T10:12:04;6.63;;;4.18;;
26253;SDS011;53339;51.378;0.094;2023-04-06T10:14:33;7.07;;;5.28;;
26253;SDS011;53339;51.378;0.094;2023-04-06T10:17:04;5.93;;;3.92;;
26253;SDS011;53339;51.378;0.094;2023-04-06T10:19:41;6.35;;;4.93;;
26253;SDS011;53339;51.378;0.094;2023-04-06T10:22:28;5.28;;;1.55;;
26253;SDS011;53339;51.378;0.094;2023-04-06T10:25:02;3.53;;;1.65;;
26253;SDS011;53339;51.378;0.094;2023-04-06T10:27:31;4.93;;;3.00;;
26253;SDS011;53339;51.378;0.094;2023-04-06T10:30:01;5.80;;;1.65;;
26253;SDS011;53339;51.378;0.094;2023-04-06T10:32:37;9.23;;;4.43;;
26253;SDS011;53339;51.378;0.094;2023-04-06T10:35:08;7.35;;;3.35;;
26253;SDS011;53339;51.378;0.094;2023-04-06T10:37:46;5.88;;;3.53;;
26253;SDS011;53339;51.378;0.094;2023-04-06T10:40:22;4.78;;;1.40;;
26253;SDS011;53339;51.378;0.094;2023-04-06T10:43:06;6.05;;;3.95;;
26253;SDS011;53339;51.378;0.094;2023-04-06T10:45:41;4.90;;;3.35;;
26253;SDS011;53339;51.378;0.094;2023-04-06T10:48:13;5.22;;;3.47;;
26253;SDS011;53339;51.378;0.094;2023-04-06T10:50:49;4.28;;;1.52;;
26253;SDS011;53339;51.378;0.094;2023-04-06T10:53:21;4.15;;;3.53;;
26253;SDS011;53339;51.378;0.094;2023-04-06T10:55:54;4.18;;;1.02;;
26253;SDS011;53339;51.378;0.094;2023-04-06T10:58:24;6.13;;;4.47;;
26253;SDS011;53339;51.378;0.094;2023-04-06T11:00:53;5.43;;;3.67;;
26253;SDS011;53339;51.378;0.094;2023-04-06T11:03:30;5.55;;;1.17;;
26253;SDS011;53339;51.378;0.094;2023-04-06T11:06:00;4.70;;;1.67;;
26253;SDS011;53339;51.378;0.094;2023-04-06T11:08:29;4.07;;;3.28;;
26253;SDS011;53339;51.378;0.094;2023-04-06T11:13:43;1.95;;;0.90;;
26253;SDS011;53339;51.378;0.094;2023-04-06T11:16:25;4.00;;;2.72;;
26253;SDS011;53339;51.378;0.094;2023-04-06T11:18:59;3.03;;;2.83;;
26253;SDS011;53339;51.378;0.094;2023-04-06T11:26:46;4.32;;;3.92;;
26253;SDS011;53339;51.378;0.094;2023-04-06T11:29:19;3.88;;;1.10;;
26253;SDS011;53339;51.378;0.094;2023-04-06T11:31:50;4.93;;;3.10;;
26253;SDS011;53339;51.378;0.094;2023-04-06T11:34:20;3.63;;;3.17;;
26253;SDS011;53339;51.378;0.094;2023-04-06T11:37:00;5.75;;;3.00;;
26253;SDS011;53339;51.378;0.094;2023-04-06T11:39:37;0.80;;;0.80;;
26253;SDS011;53339;51.378;0.094;2023-04-06T11:42:20;2.20;;;1.33;;
26253;SDS011;53339;51.378;0.094;2023-04-06T11:44:58;2.65;;;0.98;;
26253;SDS011;53339;51.378;0.094;2023-04-06T11:47:29;4.22;;;3.83;;
26253;SDS011;53339;51.378;0.094;2023-04-06T11:52:40;3.55;;;1.30;;
26253;SDS011;53339;51.378;0.094;2023-04-06T11:55:19;4.82;;;3.53;;
26253;SDS011;53339;51.378;0.094;2023-04-06T11:57:47;3.65;;;3.15;;
26253;SDS011;53339;51.378;0.094;2023-04-06T12:02:46;2.80;;;1.10;;
26253;SDS011;53339;51.378;0.094;2023-04-06T12:05:18;3.95;;;1.30;;
26253;SDS011;53339;51.378;0.094;2023-04-06T12:07:53;5.78;;;1.42;;
26253;SDS011;53339;51.378;0.094;2023-04-06T12:10:23;4.55;;;3.40;;
26253;SDS011;53339;51.378;0.094;2023-04-06T12:12:51;3.72;;;3.42;;
26253;SDS011;53339;51.378;0.094;2023-04-06T12:15:20;5.25;;;1.58;;
26253;SDS011;53339;51.378;0.094;2023-04-06T12:17:49;2.80;;;1.00;;
26253;SDS011;53339;51.378;0.094;2023-04-06T12:20:21;2.60;;;0.98;;
26253;SDS011;53339;51.378;0.094;2023-04-06T12:22:53;3.88;;;3.58;;
26253;SDS011;53339;51.378;0.094;2023-04-06T12:25:21;4.28;;;1.33;;
26253;SDS011;53339;51.378;0.094;2023-04-06T12:27:51;3.35;;;3.05;;
26253;SDS011;53339;51.378;0.094;2023-04-06T12:30:20;4.18;;;3.88;;
26253;SDS011;53339;51.378;0.094;2023-04-06T12:32:52;3.83;;;1.25;;
26253;SDS011;53339;51.378;0.094;2023-04-06T12:35:33;3.25;;;3.03;;
26253;SDS011;53339;51.378;0.094;2023-04-06T12:38:02;5.50;;;3.22;;
26253;SDS011;53339;51.378;0.094;2023-04-06T12:40:29;2.80;;;2.42;;
26253;SDS011;53339;51.378;0.094;2023-04-06T12:42:57;3.35;;;2.83;;
26253;SDS011;53339;51.378;0.094;2023-04-06T12:45:25;3.17;;;2.83;;
26253;SDS011;53339;51.378;0.094;2023-04-06T12:47:53;1.30;;;1.08;;
26253;SDS011;53339;51.378;0.094;2023-04-06T12:50:24;3.75;;;2.90;;
26253;SDS011;53339;51.378;0.094;2023-04-06T12:52:54;3.50;;;2.72;;
26253;SDS011;53339;51.378;0.094;2023-04-06T12:55:23;3.38;;;3.05;;
26253;SDS011;53339;51.378;0.094;2023-04-06T12:57:52;3.42;;;3.13;;
26253;SDS011;53339;51.378;0.094;2023-04-06T13:00:26;2.95;;;1.83;;
26253;SDS011;53339;51.378;0.094;2023-04-06T13:02:54;3.03;;;2.78;;
26253;SDS011;53339;51.378;0.094;2023-04-06T13:05:29;2.33;;;1.88;;
26253;SDS011;53339;51.378;0.094;2023-04-06T13:07:59;3.53;;;2.65;;
26253;SDS011;53339;51.378;0.094;2023-04-06T13:10:26;2.40;;;2.20;;
26253;SDS011;53339;51.378;0.094;2023-04-06T13:12:58;2.78;;;2.28;;
26253;SDS011;53339;51.378;0.094;2023-04-06T13:15:27;3.08;;;2.67;;
26253;SDS011;53339;51.378;0.094;2023-04-06T13:17:56;3.50;;;2.75;;
26253;SDS011;53339;51.378;0.094;2023-04-06T13:20:31;6.38;;;2.50;;
26253;SDS011;53339;51.378;0.094;2023-04-06T13:22:59;3.65;;;3.35;;
26253;SDS011;53339;51.378;0.094;2023-04-06T13:25:28;4.22;;;3.88;;
26253;SDS011;53339;51.378;0.094;2023-04-06T13:27:57;3.33;;;3.00;;
26253;SDS011;53339;51.378;0.094;2023-04-06T13:30:25;4.68;;;2.55;;
26253;SDS011;53339;51.378;0.094;2023-04-06T13:35:26;3.00;;;2.75;;
26253;SDS011;53339;51.378;0.094;2023-04-06T13:37:54;3.10;;;0.82;;
26253;SDS011;53339;51.378;0.094;2023-04-06T13:40:23;2.38;;;2.03;;
26253;SDS011;53339;51.378;0.094;2023-04-06T13:42:55;3.30;;;3.00;;
26253;SDS011;53339;51.378;0.094;2023-04-06T13:45:24;2.45;;;2.25;;
26253;SDS011;53339;51.378;0.094;2023-04-06T13:47:56;2.08;;;0.80;;
26253;SDS011;53339;51.378;0.094;2023-04-06T13:50:25;3.97;;;2.58;;
26253;SDS011;53339;51.378;0.094;2023-04-06T13:53:00;3.50;;;0.93;;
26253;SDS011;53339;51.378;0.094;2023-04-06T13:55:29;3.13;;;2.70;;
26253;SDS011;53339;51.378;0.094;2023-04-06T13:58:05;3.95;;;3.13;;
26253;SDS011;53339;51.378;0.094;2023-04-06T14:00:34;3.35;;;1.60;;
26253;SDS011;53339;51.378;0.094;2023-04-06T14:05:32;3.47;;;3.25;;
26253;SDS011;53339;51.378;0.094;2023-04-06T14:08:01;5.30;;;4.35;;
26253;SDS011;53339;51.378;0.094;2023-04-06T14:10:30;4.05;;;3.08;;
26253;SDS011;53339;51.378;0.094;2023-04-06T14:12:57;3.80;;;3.50;;
26253;SDS011;53339;51.378;0.094;2023-04-06T14:15:26;2.55;;;1.17;;
26253;SDS011;53339;51.378;0.094;2023-04-06T14:18:00;4.38;;;1.30;;
26253;SDS011;53339;51.378;0.094;2023-04-06T14:20:33;3.03;;;0.88;;
26253;SDS011;53339;51.378;0.094;2023-04-06T14:23:01;3.80;;;2.55;;
26253;SDS011;53339;51.378;0.094;2023-04-06T14:25:31;3.63;;;3.33;;
26253;SDS011;53339;51.378;0.094;2023-04-06T14:28:02;3.90;;;3.05;;
26253;SDS011;53339;51.378;0.094;2023-04-06T14:30:30;2.70;;;0.90;;
26253;SDS011;53339;51.378;0.094;2023-04-06T14:32:58;1.95;;;0.98;;
26253;SDS011;53339;51.378;0.094;2023-04-06T14:35:27;2.50;;;1.10;;
26253;SDS011;53339;51.378;0.094;2023-04-06T14:37:58;13.25;;;2.30;;
26253;SDS011;53339;51.378;0.094;2023-04-06T14:40:30;5.38;;;1.00;;
26253;SDS011;53339;51.378;0.094;2023-04-06T14:42:57;2.28;;;1.38;;
26253;SDS011;53339;51.378;0.094;2023-04-06T14:45:28;2.13;;;1.30;;
26253;SDS011;53339;51.378;0.094;2023-04-06T14:47:56;3.17;;;1.17;;
26253;SDS011;53339;51.378;0.094;2023-04-06T14:50:25;3.97;;;3.15;;
26253;SDS011;53339;51.378;0.094;2023-04-06T14:52:54;1.40;;;0.82;;
26253;SDS011;53339;51.378;0.094;2023-04-06T14:55:26;5.43;;;3.78;;
26253;SDS011;53339;51.378;0.094;2023-04-06T14:57:54;4.70;;;3.50;;
26253;SDS011;53339;51.378;0.094;2023-04-06T15:00:22;5.78;;;3.10;;
26253;SDS011;53339;51.378;0.094;2023-04-06T15:02:52;2.35;;;1.30;;
26253;SDS011;53339;51.378;0.094;2023-04-06T15:05:21;3.47;;;1.10;;
26253;SDS011;53339;51.378;0.094;2023-04-06T15:07:52;1.73;;;1.13;;
26253;SDS011;53339;51.378;0.094;2023-04-06T15:10:20;1.90;;;1.20;;
26253;SDS011;53339;51.378;0.094;2023-04-06T15:12:47;2.22;;;1.60;;
26253;SDS011;53339;51.378;0.094;2023-04-06T15:15:16;2.13;;;0.93;;
26253;SDS011;53339;51.378;0.094;2023-04-06T15:17:46;6.35;;;5.85;;
26253;SDS011;53339;51.378;0.094;2023-04-06T15:20:14;6.40;;;1.95;;
26253;SDS011;53339;51.378;0.094;2023-04-06T15:22:43;1.77;;;1.30;;
26253;SDS011;53339;51.378;0.094;2023-04-06T15:25:11;2.88;;;1.08;;
26253;SDS011;53339;51.378;0.094;2023-04-06T15:27:39;3.92;;;1.45;;
26253;SDS011;53339;51.378;0.094;2023-04-06T15:30:07;4.68;;;3.63;;
26253;SDS011;53339;51.378;0.094;2023-04-06T15:32:36;4.22;;;3.80;;
26253;SDS011;53339;51.378;0.094;2023-04-06T15:35:10;5.07;;;3.42;;
26253;SDS011;53339;51.378;0.094;2023-04-06T15:37:38;3.70;;;3.17;;